Time;durP1;ratioP1;P1;durP2;ratioP2;P2;SDS_P1;SDS_P2;PMS_P1;PMS_P2;Temp;Humidity;BMP_temperature;BMP_pressure;BME280_temperature;BME280_humidity;BME280_pressure;Samples;Min_cycle;Max_cycle;Signal;HPM_P1;HPM_P2
2024/01/15 00:01:51;;;;;;;22.27;11.50;;;4.20;99.90;;;;;;5053108;28;21172;-80
2024/01/15 00:04:16;;;;;;;20.50;12.40;;;4.20;99.90;;;;;;5053743;28;20177;-80
2024/01/15 00:06:42;;;;;;;24.27;13.00;;;4.20;99.90;;;;;;5035861;28;20204;-80
2024/01/15 00:09:08;;;;;;;23.90;13.20;;;4.10;99.90;;;;;;5035268;28;20169;-79
2024/01/15 00:11:33;;;;;;;17.77;11.50;;;4.10;99.90;;;;;;5024369;28;20177;-79
2024/01/15 00:13:59;;;;;;;19.33;12.00;;;4.10;99.90;;;;;;5032535;28;20538;-79
2024/01/15 00:16:25;;;;;;;16.67;11.10;;;4.10;99.90;;;;;;5024522;28;20267;-80
2024/01/15 00:18:50;;;;;;;17.87;11.57;;;4.10;99.90;;;;;;5035300;28;20181;-80
2024/01/15 00:21:16;;;;;;;19.33;11.37;;;4.10;99.90;;;;;;5032527;28;20297;-80
2024/01/15 00:23:45;;;;;;;20.43;13.13;;;4.10;99.90;;;;;;5024368;28;20180;-80
2024/01/15 00:26:11;;;;;;;19.65;12.20;;;4.10;99.90;;;;;;5032345;28;20208;-80
2024/01/15 00:28:37;;;;;;;27.33;13.63;;;4.00;99.90;;;;;;5032116;28;20227;-80
2024/01/15 00:31:05;;;;;;;20.35;13.05;;;4.00;99.90;;;;;;5035494;28;20185;-80
2024/01/15 00:33:31;;;;;;;16.42;10.38;;;4.00;99.90;;;;;;5036537;28;20173;-80
2024/01/15 00:35:56;;;;;;;23.02;13.57;;;3.90;99.90;;;;;;5054575;28;20268;-80
2024/01/15 00:38:22;;;;;;;19.73;12.40;;;3.90;99.90;;;;;;5036410;28;20203;-79
2024/01/15 00:40:48;;;;;;;23.60;13.83;;;3.90;99.90;;;;;;5035802;28;20209;-80
2024/01/15 00:43:14;;;;;;;23.07;12.43;;;3.90;99.90;;;;;;5036110;28;20629;-80
2024/01/15 00:45:40;;;;;;;23.38;14.75;;;3.80;99.90;;;;;;5055596;28;20631;-79
2024/01/15 00:48:06;;;;;;;19.58;12.32;;;3.80;99.90;;;;;;5035927;28;20212;-77
2024/01/15 00:50:32;;;;;;;23.80;13.43;;;3.80;99.90;;;;;;5035778;28;20228;-77
2024/01/15 00:52:58;;;;;;;20.13;12.90;;;3.70;99.90;;;;;;5052268;28;20177;-77
2024/01/15 00:55:23;;;;;;;18.00;10.10;;;3.70;99.90;;;;;;5035932;28;20498;-78
2024/01/15 00:57:49;;;;;;;17.03;11.23;;;3.70;99.90;;;;;;5019331;28;20526;-77
2024/01/15 01:00:15;;;;;;;20.60;11.97;;;3.70;99.90;;;;;;5033528;28;20663;-77
2024/01/15 01:02:41;;;;;;;24.73;14.03;;;3.70;99.90;;;;;;5047883;28;20193;-77
2024/01/15 01:05:07;;;;;;;19.98;12.63;;;3.60;99.90;;;;;;5019228;28;21228;-77
2024/01/15 01:07:33;;;;;;;19.65;11.20;;;3.60;99.90;;;;;;5027540;28;20219;-77
2024/01/15 01:09:58;;;;;;;20.90;11.40;;;3.70;99.90;;;;;;5027796;28;20193;-77
2024/01/15 01:12:24;;;;;;;18.97;11.60;;;3.70;99.90;;;;;;5023871;28;20173;-77
2024/01/15 01:14:50;;;;;;;23.03;12.97;;;3.70;99.90;;;;;;5015857;28;20208;-77
2024/01/15 01:17:15;;;;;;;23.87;13.43;;;3.70;99.90;;;;;;5016157;28;20675;-78
2024/01/15 01:19:41;;;;;;;17.83;11.90;;;3.70;99.90;;;;;;5036738;28;21030;-78
2024/01/15 01:22:06;;;;;;;21.10;12.13;;;3.70;99.90;;;;;;5032987;28;20227;-78
2024/01/15 01:24:32;;;;;;;20.97;11.77;;;3.70;99.90;;;;;;5028274;28;20204;-78
2024/01/15 01:26:58;;;;;;;22.83;12.48;;;3.70;99.90;;;;;;5037386;28;20535;-78
2024/01/15 01:29:24;;;;;;;17.90;11.30;;;3.70;99.90;;;;;;5032864;28;20197;-78
2024/01/15 01:31:50;;;;;;;16.80;10.80;;;3.70;99.90;;;;;;5032290;28;20224;-78
2024/01/15 01:34:16;;;;;;;21.80;11.53;;;3.70;99.90;;;;;;5033246;28;20579;-78
2024/01/15 01:36:43;;;;;;;16.63;9.50;;;3.70;99.90;;;;;;5033379;28;20182;-78
2024/01/15 01:39:09;;;;;;;24.00;12.90;;;3.70;99.90;;;;;;5026838;28;20521;-77
2024/01/15 01:41:35;;;;;;;18.63;10.15;;;3.70;99.90;;;;;;5048103;28;20170;-78
2024/01/15 01:44:00;;;;;;;15.47;10.30;;;3.70;99.90;;;;;;5033229;28;20208;-78
2024/01/15 01:46:27;;;;;;;19.83;11.87;;;3.70;99.90;;;;;;5052709;28;20623;-78
2024/01/15 01:48:55;;;;;;;16.63;11.68;;;3.70;99.90;;;;;;5052979;28;20176;-78
2024/01/15 01:51:22;;;;;;;20.77;12.02;;;3.70;99.90;;;;;;5052529;28;20177;-78
2024/01/15 01:53:49;;;;;;;17.45;11.30;;;3.70;99.90;;;;;;5035135;28;20260;-78
2024/01/15 01:56:16;;;;;;;17.45;11.20;;;3.70;99.90;;;;;;5034774;28;20177;-78
2024/01/15 01:58:43;;;;;;;20.92;12.48;;;3.70;99.90;;;;;;5052698;28;20181;-78
2024/01/15 02:01:08;;;;;;;22.70;12.68;;;3.70;99.90;;;;;;5035054;28;20201;-78
2024/01/15 02:03:35;;;;;;;18.30;11.00;;;3.70;99.90;;;;;;5034872;28;20191;-78
2024/01/15 02:06:01;;;;;;;25.05;13.55;;;3.70;99.90;;;;;;5006973;28;20683;-78
2024/01/15 02:08:27;;;;;;;21.33;11.40;;;3.70;99.90;;;;;;5032803;28;20320;-78
2024/01/15 02:10:52;;;;;;;21.20;12.03;;;3.70;99.90;;;;;;5032146;28;20284;-78
2024/01/15 02:13:20;;;;;;;24.20;13.63;;;3.70;99.90;;;;;;5031473;28;20582;-78
2024/01/15 02:15:45;;;;;;;21.05;12.90;;;3.70;99.90;;;;;;5031224;28;20180;-79
2024/01/15 02:18:11;;;;;;;18.80;11.83;;;3.70;99.90;;;;;;5031279;28;20178;-78
2024/01/15 02:20:37;;;;;;;23.83;12.83;;;3.70;99.90;;;;;;5032198;28;20201;-78
2024/01/15 02:23:09;;;;;;;25.87;13.60;;;3.70;99.90;;;;;;5032584;28;20260;-78
2024/01/15 02:25:36;;;;;;;19.40;13.25;;;3.70;99.90;;;;;;5032183;28;20204;-78
2024/01/15 02:28:02;;;;;;;20.17;12.75;;;3.70;99.90;;;;;;5027199;28;20177;-78
2024/01/15 02:30:29;;;;;;;20.27;13.10;;;3.70;99.90;;;;;;5033516;28;20192;-78
2024/01/15 02:32:55;;;;;;;20.50;12.07;;;3.80;99.90;;;;;;5017946;28;20188;-78
2024/01/15 02:35:21;;;;;;;23.00;12.57;;;3.80;99.90;;;;;;5034280;28;20264;-78
2024/01/15 02:37:46;;;;;;;18.17;12.03;;;3.80;99.90;;;;;;5027223;28;20226;-78
2024/01/15 02:40:12;;;;;;;17.23;11.20;;;3.80;99.90;;;;;;5032754;28;20212;-78
2024/01/15 02:42:38;;;;;;;25.00;13.60;;;3.80;99.90;;;;;;5026519;28;20180;-78
2024/01/15 02:45:04;;;;;;;21.87;11.90;;;3.80;99.90;;;;;;5033844;28;20235;-80
2024/01/15 02:47:30;;;;;;;19.92;12.60;;;3.80;99.90;;;;;;5034061;28;20239;-80
2024/01/15 02:49:56;;;;;;;19.80;12.27;;;3.80;99.90;;;;;;5051327;28;20185;-80
2024/01/15 02:52:21;;;;;;;21.37;12.70;;;3.80;99.90;;;;;;5015133;28;20670;-80
2024/01/15 02:54:47;;;;;;;20.90;12.30;;;3.90;99.90;;;;;;5022858;28;20180;-80
2024/01/15 02:57:13;;;;;;;18.93;11.33;;;3.90;99.90;;;;;;5033958;28;20177;-80
2024/01/15 02:59:39;;;;;;;23.35;11.55;;;3.90;99.90;;;;;;5051224;28;20209;-80
2024/01/15 03:02:05;;;;;;;19.37;13.10;;;3.90;99.90;;;;;;5017303;28;20519;-78
2024/01/15 03:04:31;;;;;;;22.83;12.83;;;3.90;99.90;;;;;;5040139;28;20177;-78
2024/01/15 03:06:56;;;;;;;16.80;10.40;;;3.90;99.90;;;;;;5014028;28;20166;-78
2024/01/15 03:09:22;;;;;;;19.10;10.60;;;3.90;99.90;;;;;;5029473;28;20255;-78
2024/01/15 03:11:48;;;;;;;19.80;12.00;;;3.90;99.90;;;;;;5014263;28;20177;-79
2024/01/15 03:14:14;;;;;;;21.30;12.15;;;4.00;99.90;;;;;;5015840;28;20634;-78
2024/01/15 03:16:40;;;;;;;17.25;11.13;;;4.00;99.90;;;;;;5043937;28;20199;-79
2024/01/15 03:19:06;;;;;;;20.53;12.53;;;4.00;99.90;;;;;;5042857;28;20177;-78
2024/01/15 03:21:31;;;;;;;20.93;13.77;;;4.00;99.90;;;;;;5033969;28;20655;-78
2024/01/15 03:23:57;;;;;;;17.53;10.67;;;3.90;99.90;;;;;;5036418;28;20173;-78
2024/01/15 03:26:23;;;;;;;21.67;12.13;;;3.90;99.90;;;;;;5033096;28;20625;-78
2024/01/15 03:28:48;;;;;;;20.73;12.97;;;3.90;99.90;;;;;;5028075;28;20735;-78
2024/01/15 03:31:14;;;;;;;20.40;11.07;;;3.90;99.90;;;;;;5029954;28;20235;-78
2024/01/15 03:33:40;;;;;;;20.33;10.80;;;3.90;99.90;;;;;;5038989;28;20173;-78
2024/01/15 03:36:06;;;;;;;16.87;12.07;;;3.90;99.90;;;;;;5034080;28;20173;-79
2024/01/15 03:38:32;;;;;;;16.25;11.73;;;3.90;99.90;;;;;;5006278;28;20272;-79
2024/01/15 03:40:58;;;;;;;20.00;13.65;;;3.90;99.90;;;;;;5048370;28;20257;-79
2024/01/15 03:43:23;;;;;;;18.17;12.10;;;3.90;99.90;;;;;;5008421;28;20276;-79
2024/01/15 03:45:49;;;;;;;16.53;11.60;;;3.90;99.90;;;;;;5032971;28;20196;-79
2024/01/15 03:48:14;;;;;;;21.80;11.60;;;4.00;99.90;;;;;;5005635;28;20722;-79
2024/01/15 03:50:40;;;;;;;19.77;12.43;;;3.90;99.90;;;;;;5004901;28;20181;-79
2024/01/15 03:53:06;;;;;;;19.50;12.57;;;4.00;99.90;;;;;;5010119;28;20173;-79
2024/01/15 03:55:32;;;;;;;18.00;11.73;;;4.00;99.90;;;;;;5050293;28;20264;-79
2024/01/15 03:57:58;;;;;;;18.23;12.45;;;4.00;99.90;;;;;;5032911;28;20181;-79
2024/01/15 04:00:23;;;;;;;18.97;12.77;;;4.00;99.90;;;;;;5024218;28;20204;-79
2024/01/15 04:02:49;;;;;;;21.17;12.40;;;4.00;99.90;;;;;;5025169;28;20168;-79
2024/01/15 04:05:15;;;;;;;19.63;11.90;;;4.00;99.90;;;;;;5031297;28;20662;-79
2024/01/15 04:07:40;;;;;;;20.20;12.80;;;4.00;99.90;;;;;;5043272;28;20173;-79
2024/01/15 04:10:06;;;;;;;23.87;13.57;;;4.00;99.90;;;;;;5032337;28;20627;-79
2024/01/15 04:16:33;;;;;;;15.35;10.32;;;4.00;99.90;;;;;;5050067;28;20961;-79
2024/01/15 04:18:58;;;;;;;17.50;10.30;;;4.10;99.90;;;;;;5026294;28;20201;-79
2024/01/15 04:21:24;;;;;;;16.63;11.40;;;4.10;99.90;;;;;;5030471;28;20223;-79
2024/01/15 04:23:50;;;;;;;16.83;11.80;;;4.10;99.90;;;;;;5025439;28;20192;-79
2024/01/15 04:26:15;;;;;;;21.80;11.50;;;4.00;99.90;;;;;;5050539;28;20535;-79
2024/01/15 04:28:41;;;;;;;15.30;11.00;;;4.10;99.90;;;;;;5051231;28;20184;-79
2024/01/15 04:31:07;;;;;;;16.40;10.50;;;4.10;99.90;;;;;;5032784;28;20188;-73
2024/01/15 04:33:32;;;;;;;20.60;11.50;;;4.10;99.90;;;;;;5047070;28;20641;-73
2024/01/15 04:36:02;;;;;;;17.67;11.50;;;4.10;99.90;;;;;;5026646;28;20546;-73
2024/01/15 04:38:28;;;;;;;17.13;9.75;;;4.00;99.90;;;;;;5022796;28;20174;-74
2024/01/15 04:40:53;;;;;;;18.03;11.73;;;4.00;99.90;;;;;;5050054;28;20206;-73
2024/01/15 04:43:19;;;;;;;16.17;9.90;;;4.10;99.90;;;;;;5049468;28;20184;-73
2024/01/15 04:45:45;;;;;;;20.50;11.77;;;4.10;99.90;;;;;;5050096;28;20235;-72
2024/01/15 04:48:10;;;;;;;13.87;9.50;;;4.10;99.90;;;;;;5032096;28;20659;-73
2024/01/15 04:50:36;;;;;;;13.50;9.30;;;4.10;99.90;;;;;;5030936;28;20303;-73
2024/01/15 04:53:03;;;;;;;15.30;9.35;;;4.20;99.90;;;;;;5047385;28;20272;-73
2024/01/15 04:55:29;;;;;;;13.53;8.60;;;4.20;99.90;;;;;;5049766;28;20268;-72
2024/01/15 04:57:54;;;;;;;18.03;9.77;;;4.20;99.90;;;;;;5049717;28;20687;-72
2024/01/15 05:00:20;;;;;;;14.90;8.53;;;4.20;99.90;;;;;;5032522;28;20293;-72
2024/01/15 05:02:46;;;;;;;14.90;9.20;;;4.20;99.90;;;;;;5019648;28;20644;-72
2024/01/15 05:05:11;;;;;;;15.30;8.23;;;4.30;99.90;;;;;;5011321;28;20212;-72
2024/01/15 05:07:37;;;;;;;12.70;9.13;;;4.30;99.90;;;;;;5032007;28;20638;-73
2024/01/15 05:10:03;;;;;;;13.90;9.17;;;4.30;99.90;;;;;;5039179;28;20177;-73
2024/01/15 05:12:29;;;;;;;12.55;7.70;;;4.30;99.90;;;;;;5047980;28;20395;-73
2024/01/15 05:14:55;;;;;;;13.47;9.20;;;4.30;99.90;;;;;;5015743;28;20192;-73
2024/01/15 05:17:21;;;;;;;13.80;7.87;;;4.40;99.90;;;;;;5018374;28;20181;-73
2024/01/15 05:19:46;;;;;;;13.83;8.13;;;4.40;99.90;;;;;;5037012;28;20193;-72
2024/01/15 05:22:12;;;;;;;15.40;9.83;;;4.40;99.90;;;;;;5027683;28;20260;-72
2024/01/15 05:24:38;;;;;;;10.90;7.20;;;4.30;99.90;;;;;;5026221;28;20651;-73
2024/01/15 05:27:03;;;;;;;15.87;8.30;;;4.40;99.90;;;;;;5053310;28;20173;-73
2024/01/15 05:29:29;;;;;;;12.48;8.73;;;4.40;99.90;;;;;;5035432;28;20674;-73
2024/01/15 05:31:55;;;;;;;11.20;7.60;;;4.40;99.90;;;;;;5053486;28;20176;-73
2024/01/15 05:34:21;;;;;;;12.60;8.47;;;4.40;99.90;;;;;;5033199;28;20173;-72
2024/01/15 05:36:47;;;;;;;10.83;8.03;;;4.40;99.90;;;;;;5036734;28;20604;-71
2024/01/15 05:39:13;;;;;;;11.40;8.23;;;4.40;99.90;;;;;;5019755;28;20201;-71
2024/01/15 05:41:39;;;;;;;11.50;7.57;;;4.40;99.90;;;;;;5045265;28;20256;-72
2024/01/15 05:44:05;;;;;;;11.63;7.67;;;4.40;99.90;;;;;;5036885;28;20639;-71
2024/01/15 05:46:30;;;;;;;8.83;7.07;;;4.40;99.90;;;;;;5042677;28;20624;-72
2024/01/15 05:48:56;;;;;;;12.10;7.23;;;4.50;99.90;;;;;;5041012;28;20217;-72
2024/01/15 05:51:22;;;;;;;11.00;6.97;;;4.50;99.90;;;;;;5016765;28;20829;-72
2024/01/15 05:53:47;;;;;;;14.90;9.17;;;4.40;99.90;;;;;;5030379;28;20178;-71
2024/01/15 05:56:13;;;;;;;10.00;6.60;;;4.50;99.90;;;;;;5022827;28;20184;-71
2024/01/15 05:58:39;;;;;;;11.97;7.13;;;4.50;99.90;;;;;;5049481;28;20197;-72
2024/01/15 06:01:04;;;;;;;11.40;6.93;;;4.50;99.90;;;;;;5051211;28;20663;-72
2024/01/15 06:03:30;;;;;;;13.13;7.40;;;4.50;99.90;;;;;;5032388;28;20602;-71
2024/01/15 06:05:56;;;;;;;8.93;6.37;;;4.50;99.90;;;;;;5040933;28;20197;-71
2024/01/15 06:08:22;;;;;;;7.33;5.93;;;4.50;99.90;;;;;;5031222;28;20265;-71
2024/01/15 06:10:47;;;;;;;9.80;6.23;;;4.60;99.90;;;;;;5026650;28;20212;-71
2024/01/15 06:13:13;;;;;;;12.70;8.47;;;4.60;99.90;;;;;;5048888;28;20605;-71
2024/01/15 06:15:39;;;;;;;14.48;6.95;;;4.60;99.90;;;;;;5052190;28;20189;-72
2024/01/15 06:18:05;;;;;;;12.23;7.00;;;4.60;99.90;;;;;;5049408;28;20177;-71
2024/01/15 06:20:30;;;;;;;10.20;7.27;;;4.70;99.90;;;;;;5000176;28;20205;-72
2024/01/15 06:22:56;;;;;;;11.37;6.03;;;4.60;99.90;;;;;;5040296;28;20577;-71
2024/01/15 06:25:22;;;;;;;15.93;8.20;;;4.60;99.90;;;;;;5022499;28;20286;-71
2024/01/15 06:27:47;;;;;;;12.10;8.13;;;4.60;99.90;;;;;;5013011;28;20196;-71
2024/01/15 06:30:13;;;;;;;10.73;8.17;;;4.70;99.90;;;;;;5021488;28;20219;-72
2024/01/15 06:32:39;;;;;;;8.95;6.75;;;4.70;99.90;;;;;;5043340;28;20204;-71
2024/01/15 06:35:05;;;;;;;10.47;7.47;;;4.70;99.90;;;;;;5025883;28;20635;-71
2024/01/15 06:37:32;;;;;;;10.65;7.57;;;4.70;99.90;;;;;;5042373;28;20231;-71
2024/01/15 06:39:58;;;;;;;13.85;7.60;;;4.70;99.90;;;;;;5041595;28;20208;-71
2024/01/15 06:42:24;;;;;;;12.40;7.80;;;4.70;99.90;;;;;;5033784;28;20646;-72
2024/01/15 06:44:50;;;;;;;11.45;8.35;;;4.70;99.90;;;;;;5011113;28;20178;-71
2024/01/15 06:47:17;;;;;;;10.43;7.90;;;4.70;99.90;;;;;;5032342;28;20197;-72
2024/01/15 06:49:43;;;;;;;12.52;9.63;;;4.60;99.90;;;;;;5030460;28;20276;-72
2024/01/15 06:52:09;;;;;;;12.60;8.35;;;4.60;99.90;;;;;;5019933;28;20173;-72
2024/01/15 06:54:34;;;;;;;10.60;7.80;;;4.60;99.90;;;;;;5042868;28;20181;-72
2024/01/15 06:57:09;;;;;;;10.50;8.33;;;4.70;99.90;;;;;;5043591;28;20311;-72
2024/01/15 06:59:37;;;;;;;9.75;6.28;;;4.70;99.90;;;;;;5042837;28;20222;-73
2024/01/15 07:02:03;;;;;;;9.40;7.40;;;4.70;99.90;;;;;;5029981;28;20178;-72
2024/01/15 07:04:29;;;;;;;11.63;7.27;;;4.70;99.90;;;;;;5042547;28;20547;-72
2024/01/15 07:06:55;;;;;;;9.23;7.77;;;4.70;99.90;;;;;;5025435;28;20619;-73
2024/01/15 07:09:20;;;;;;;10.63;7.07;;;4.80;99.90;;;;;;5019100;28;20263;-73
2024/01/15 07:11:46;;;;;;;12.93;8.83;;;4.80;99.90;;;;;;5025006;28;20169;-73
2024/01/15 07:14:12;;;;;;;12.40;8.37;;;4.80;99.90;;;;;;5024426;28;20645;-73
2024/01/15 07:16:38;;;;;;;12.88;8.90;;;4.80;99.90;;;;;;5025148;28;20662;-73
2024/01/15 07:19:04;;;;;;;9.07;6.80;;;4.80;99.90;;;;;;5024976;28;20188;-73
2024/01/15 07:21:30;;;;;;;11.07;7.13;;;4.80;99.90;;;;;;5042720;28;20667;-73
2024/01/15 07:23:56;;;;;;;9.03;6.80;;;4.80;99.90;;;;;;5011791;28;20294;-73
2024/01/15 07:26:21;;;;;;;10.43;6.70;;;4.80;99.90;;;;;;5039359;28;20685;-73
2024/01/15 07:28:47;;;;;;;10.70;7.70;;;4.80;99.90;;;;;;5029378;28;20170;-72
2024/01/15 07:31:16;;;;;;;10.50;8.23;;;4.80;99.90;;;;;;5038919;28;20618;-73
2024/01/15 07:33:41;;;;;;;11.73;7.90;;;4.80;99.90;;;;;;5028893;28;20177;-72
2024/01/15 07:36:07;;;;;;;14.27;7.47;;;4.80;99.90;;;;;;5039042;28;20513;-74
2024/01/15 07:38:33;;;;;;;10.40;7.93;;;4.80;99.90;;;;;;5013605;28;20182;-73
2024/01/15 07:40:59;;;;;;;10.63;8.53;;;4.80;99.90;;;;;;5042426;28;20216;-73
2024/01/15 07:43:25;;;;;;;14.60;8.67;;;4.80;99.90;;;;;;5041411;28;20176;-72
2024/01/15 07:45:50;;;;;;;10.63;7.67;;;4.80;99.90;;;;;;5024513;28;20688;-73
2024/01/15 07:48:16;;;;;;;11.80;7.30;;;4.80;99.90;;;;;;5017965;28;20174;-72
2024/01/15 07:50:42;;;;;;;8.80;7.00;;;4.80;99.90;;;;;;5002174;28;20192;-72
2024/01/15 07:53:07;;;;;;;13.70;7.73;;;4.80;99.90;;;;;;5049560;28;20681;-73
2024/01/15 07:55:33;;;;;;;11.63;8.03;;;4.90;99.90;;;;;;5032349;28;20216;-72
2024/01/15 07:57:59;;;;;;;13.87;9.10;;;4.90;99.90;;;;;;5028184;28;20205;-73
2024/01/15 08:00:25;;;;;;;11.47;7.80;;;4.90;99.90;;;;;;5042290;28;20267;-73
2024/01/15 08:02:52;;;;;;;10.98;9.77;;;4.90;99.90;;;;;;5038908;28;20180;-73
2024/01/15 08:05:19;;;;;;;16.83;10.32;;;4.90;99.90;;;;;;5032318;28;20192;-72
2024/01/15 08:07:44;;;;;;;16.05;10.02;;;4.90;99.90;;;;;;5030171;28;20173;-72
2024/01/15 08:10:10;;;;;;;14.53;9.87;;;5.00;99.90;;;;;;5007167;28;20204;-72
2024/01/15 08:12:36;;;;;;;16.07;9.30;;;5.00;99.90;;;;;;5030770;28;20235;-72
2024/01/15 08:15:01;;;;;;;15.60;9.80;;;5.00;99.90;;;;;;5041968;28;20180;-73
2024/01/15 08:17:28;;;;;;;11.70;8.50;;;5.00;99.90;;;;;;5043321;28;20177;-72
2024/01/15 08:19:54;;;;;;;13.35;10.82;;;5.00;99.90;;;;;;5038902;28;20201;-73
2024/01/15 08:22:20;;;;;;;13.35;11.20;;;5.00;99.90;;;;;;5028093;28;20192;-73
2024/01/15 08:24:46;;;;;;;16.10;11.47;;;5.10;99.90;;;;;;5012725;28;20174;-73
2024/01/15 08:27:11;;;;;;;16.90;10.27;;;5.10;99.90;;;;;;5026715;28;20199;-73
2024/01/15 08:29:37;;;;;;;14.10;10.07;;;5.10;99.90;;;;;;5048433;28;20235;-73
2024/01/15 08:32:03;;;;;;;13.10;10.10;;;5.10;99.90;;;;;;5027584;28;20218;-73
2024/01/15 08:34:29;;;;;;;15.90;10.03;;;5.10;99.90;;;;;;5020243;28;20276;-74
2024/01/15 08:36:55;;;;;;;15.97;11.33;;;5.10;99.90;;;;;;5045578;28;20587;-73
2024/01/15 08:39:20;;;;;;;15.50;10.83;;;5.10;99.90;;;;;;5031699;28;20215;-73
2024/01/15 08:41:49;;;;;;;17.40;11.40;;;5.10;99.90;;;;;;5023918;28;20181;-73
2024/01/15 08:44:14;;;;;;;14.23;10.77;;;5.20;99.90;;;;;;5023367;28;20199;-73
2024/01/15 08:46:40;;;;;;;12.67;9.37;;;5.10;99.90;;;;;;5035316;28;20202;-74
2024/01/15 08:49:06;;;;;;;16.00;9.97;;;5.10;99.90;;;;;;5041189;28;20173;-74
2024/01/15 08:51:31;;;;;;;15.27;11.50;;;5.10;99.90;;;;;;5031879;28;20173;-73
2024/01/15 08:53:58;;;;;;;14.57;9.23;;;5.10;99.90;;;;;;5060939;28;20536;-73
2024/01/15 08:56:23;;;;;;;14.65;10.40;;;5.10;99.90;;;;;;5027659;28;20192;-74
2024/01/15 08:58:49;;;;;;;17.43;11.20;;;5.20;99.90;;;;;;5027945;28;20192;-74
2024/01/15 09:01:15;;;;;;;13.57;9.50;;;5.20;99.90;;;;;;5045548;28;20201;-73
2024/01/15 09:03:43;;;;;;;16.37;9.10;;;5.20;99.90;;;;;;5040732;28;20193;-73
2024/01/15 09:06:09;;;;;;;12.65;9.68;;;5.20;99.90;;;;;;5049186;28;20590;-73
2024/01/15 09:08:36;;;;;;;16.05;8.85;;;5.20;99.90;;;;;;5035434;28;20279;-73
2024/01/15 09:11:02;;;;;;;12.02;8.98;;;5.20;99.90;;;;;;5045093;28;20212;-72
2024/01/15 09:13:28;;;;;;;9.70;8.57;;;5.20;99.90;;;;;;5026711;28;20178;-72
2024/01/15 09:15:54;;;;;;;14.67;8.80;;;5.20;99.90;;;;;;5052882;28;20192;-73
2024/01/15 09:18:20;;;;;;;11.53;9.47;;;5.20;99.90;;;;;;5020538;28;20955;-72
2024/01/15 09:20:45;;;;;;;13.33;9.20;;;5.20;99.90;;;;;;5051736;28;20203;-72
2024/01/15 09:23:11;;;;;;;13.17;9.20;;;5.20;99.90;;;;;;5052357;28;20212;-72
2024/01/15 09:25:37;;;;;;;10.97;8.23;;;5.20;99.90;;;;;;5009812;28;20644;-72
2024/01/15 09:28:02;;;;;;;9.43;7.83;;;5.10;99.90;;;;;;5018652;28;20188;-72
2024/01/15 09:30:28;;;;;;;10.30;8.10;;;5.10;99.90;;;;;;5052732;28;20197;-72
2024/01/15 09:32:54;;;;;;;13.43;7.90;;;5.00;99.90;;;;;;5034383;28;20594;-72
2024/01/15 09:35:19;;;;;;;9.70;6.40;;;5.00;99.90;;;;;;5045961;28;20182;-72
2024/01/15 09:37:45;;;;;;;8.40;6.63;;;5.00;99.90;;;;;;5016391;28;20192;-72
2024/01/15 09:40:14;;;;;;;12.13;7.97;;;4.90;99.90;;;;;;5034490;28;20323;-72
2024/01/15 09:42:42;;;;;;;9.10;6.15;;;4.90;99.90;;;;;;5001563;28;20196;-73
2024/01/15 09:45:09;;;;;;;10.90;6.07;;;4.80;99.90;;;;;;5052239;28;20205;-72
2024/01/15 09:47:36;;;;;;;7.47;5.80;;;4.80;99.90;;;;;;5017887;28;20176;-73
2024/01/15 09:50:03;;;;;;;8.30;6.32;;;4.70;99.90;;;;;;5027122;28;20308;-73
2024/01/15 09:52:30;;;;;;;11.45;5.55;;;4.70;99.90;;;;;;5043968;28;20172;-73
2024/01/15 09:54:58;;;;;;;5.38;4.03;;;4.70;99.90;;;;;;5035245;28;20340;-73
2024/01/15 09:57:24;;;;;;;6.65;4.85;;;4.60;99.90;;;;;;5037014;28;20190;-73
2024/01/15 09:59:53;;;;;;;4.00;3.60;;;4.50;99.90;;;;;;5025293;28;20240;-73
2024/01/15 10:02:19;;;;;;;4.32;3.25;;;4.50;99.90;;;;;;5026401;28;20173;-72
2024/01/15 10:04:45;;;;;;;6.00;4.70;;;4.50;99.90;;;;;;5008421;28;20538;-73
2024/01/15 10:07:16;;;;;;;4.93;3.90;;;4.50;99.90;;;;;;5025672;28;20178;-73
2024/01/15 10:09:42;;;;;;;6.22;3.50;;;4.40;99.90;;;;;;5047732;28;20562;-73
2024/01/15 10:12:09;;;;;;;4.80;3.80;;;4.40;99.90;;;;;;5034594;28;20180;-73
2024/01/15 10:14:35;;;;;;;4.53;3.08;;;4.40;99.90;;;;;;5033339;28;20585;-73
2024/01/15 10:17:00;;;;;;;4.33;3.30;;;4.50;99.90;;;;;;5022550;28;20293;-73
2024/01/15 10:19:27;;;;;;;4.10;3.33;;;4.50;99.90;;;;;;5047564;28;20216;-73
2024/01/15 10:21:53;;;;;;;6.85;3.55;;;4.50;99.90;;;;;;5014405;28;20170;-73
2024/01/15 10:24:18;;;;;;;6.70;4.40;;;4.50;99.90;;;;;;5033228;28;20614;-74
2024/01/15 10:26:44;;;;;;;4.17;3.37;;;4.50;99.90;;;;;;5017729;28;20213;-74
2024/01/15 10:29:10;;;;;;;4.05;2.50;;;4.50;99.90;;;;;;5026236;28;20228;-73
2024/01/15 10:31:37;;;;;;;5.57;2.90;;;4.50;99.90;;;;;;5040670;28;20532;-73
2024/01/15 10:34:12;;;;;;;4.85;2.95;;;4.50;99.90;;;;;;5024974;28;20170;-73
2024/01/15 10:36:39;;;;;;;5.65;2.80;;;4.50;99.90;;;;;;5043512;28;20196;-73
2024/01/15 10:39:07;;;;;;;4.38;2.33;;;4.50;99.90;;;;;;5030509;28;20177;-73
2024/01/15 10:41:33;;;;;;;3.50;2.97;;;4.50;99.90;;;;;;5019311;28;20702;-73
2024/01/15 10:43:58;;;;;;;2.70;2.20;;;4.50;99.90;;;;;;5047528;28;20177;-74
2024/01/15 10:46:25;;;;;;;4.27;2.93;;;4.40;99.90;;;;;;5039611;28;20216;-73
2024/01/15 10:48:51;;;;;;;4.70;2.95;;;4.40;99.90;;;;;;5031635;28;20173;-73
2024/01/15 10:51:18;;;;;;;3.55;3.20;;;4.50;99.90;;;;;;5033353;28;20228;-73
2024/01/15 10:53:45;;;;;;;3.92;2.65;;;4.50;99.90;;;;;;5015774;28;20213;-73
2024/01/15 10:56:12;;;;;;;4.50;2.33;;;4.40;99.90;;;;;;5039578;28;20182;-73
2024/01/15 10:58:39;;;;;;;2.20;1.80;;;4.40;99.90;;;;;;5029981;28;20181;-73
2024/01/15 11:01:06;;;;;;;3.92;1.83;;;4.40;99.90;;;;;;5025741;28;20204;-73
2024/01/15 11:03:33;;;;;;;2.80;1.60;;;4.40;99.90;;;;;;5042178;28;20238;-73
2024/01/15 11:05:59;;;;;;;2.63;2.00;;;4.30;99.90;;;;;;5050144;28;20632;-73
2024/01/15 11:08:25;;;;;;;3.22;1.88;;;4.30;99.90;;;;;;5025250;28;20211;-73
2024/01/15 11:10:52;;;;;;;1.93;1.70;;;4.30;99.90;;;;;;5008689;28;20220;-72
2024/01/15 11:13:33;;;;;;;2.88;1.75;;;4.30;99.90;;;;;;5024204;28;20235;-73
2024/01/15 11:16:04;;;;;;;2.17;1.45;;;4.30;99.90;;;;;;5024848;28;20189;-73
2024/01/15 11:18:34;;;;;;;2.20;1.52;;;4.40;99.90;;;;;;5018456;28;20185;-73
2024/01/15 11:21:18;;;;;;;2.78;2.10;;;4.40;99.90;;;;;;5024754;28;20196;-72
2024/01/15 11:23:49;;;;;;;2.72;1.55;;;4.40;99.90;;;;;;5007924;28;20188;-73
2024/01/15 11:26:33;;;;;;;2.13;1.20;;;4.50;99.90;;;;;;5024627;28;20208;-73
2024/01/15 11:29:28;;;;;;;3.03;2.15;;;4.50;99.90;;;;;;5047705;28;20534;-73
2024/01/15 11:32:01;;;;;;;3.80;2.10;;;4.60;99.90;;;;;;5050895;28;20237;-73
2024/01/15 11:34:52;;;;;;;2.20;1.75;;;4.70;99.90;;;;;;5009301;28;20604;-73
2024/01/15 11:37:19;;;;;;;2.28;1.58;;;4.70;99.90;;;;;;5042884;28;20176;-73
2024/01/15 11:39:48;;;;;;;1.85;1.63;;;4.80;99.90;;;;;;5031551;28;20205;-73
2024/01/15 11:42:15;;;;;;;2.58;2.22;;;4.90;99.90;;;;;;5038817;28;20202;-73
2024/01/15 11:44:41;;;;;;;3.15;2.42;;;5.00;99.90;;;;;;5028589;28;20528;-73
2024/01/15 11:47:14;;;;;;;2.92;2.17;;;5.00;99.90;;;;;;5024724;28;20193;-73
2024/01/15 11:50:11;;;;;;;2.65;2.25;;;5.00;99.90;;;;;;5041773;28;20193;-73
2024/01/15 11:52:38;;;;;;;3.20;2.90;;;5.00;99.90;;;;;;5012767;28;20302;-73
2024/01/15 11:55:29;;;;;;;3.10;2.80;;;5.00;99.90;;;;;;5029006;28;20267;-73
2024/01/15 11:57:57;;;;;;;5.38;3.78;;;5.00;99.90;;;;;;5028454;28;20308;-73
2024/01/15 12:00:23;;;;;;;3.55;3.10;;;5.00;99.90;;;;;;5010161;28;20193;-73
2024/01/15 12:02:53;;;;;;;4.25;2.78;;;5.00;99.90;;;;;;5039278;28;20643;-73
2024/01/15 12:05:20;;;;;;;3.72;2.95;;;5.00;99.90;;;;;;5019668;28;20209;-73
2024/01/15 12:07:48;;;;;;;4.63;3.78;;;5.00;99.90;;;;;;5028746;28;20219;-73
2024/01/15 12:10:19;;;;;;;5.80;4.50;;;5.00;99.90;;;;;;5038693;28;20193;-73
2024/01/15 12:13:06;;;;;;;6.03;4.13;;;5.00;99.90;;;;;;5038536;28;20189;-73
2024/01/15 12:15:33;;;;;;;6.00;4.25;;;5.00;99.90;;;;;;5025510;28;20192;-73
2024/01/15 12:18:02;;;;;;;6.65;4.60;;;5.10;99.90;;;;;;5040517;28;20653;-73
2024/01/15 12:20:29;;;;;;;4.43;3.80;;;5.00;99.90;;;;;;5023951;28;20238;-73
2024/01/15 12:22:55;;;;;;;5.68;4.95;;;5.10;99.90;;;;;;5023516;28;20178;-73
2024/01/15 12:25:22;;;;;;;5.22;4.72;;;5.10;99.90;;;;;;5005483;28;20203;-73
2024/01/15 12:27:48;;;;;;;5.85;5.03;;;5.10;99.90;;;;;;5028500;28;20657;-72
2024/01/15 12:30:15;;;;;;;5.27;4.20;;;5.10;99.90;;;;;;5075433;22;20212;-74
2024/01/15 12:32:44;;;;;;;5.72;3.20;;;5.20;99.90;;;;;;5035284;28;20583;-74
2024/01/15 12:35:13;;;;;;;8.80;3.80;;;5.30;99.90;;;;;;5048525;28;20242;-74
2024/01/15 12:37:40;;;;;;;7.72;4.07;;;5.40;99.90;;;;;;5042749;28;20234;-74
2024/01/15 12:40:09;;;;;;;6.00;3.83;;;5.50;99.90;;;;;;5014716;28;20289;-74
2024/01/15 12:42:44;;;;;;;6.88;3.90;;;5.60;99.90;;;;;;5016591;28;20280;-74
2024/01/15 12:45:12;;;;;;;4.95;3.38;;;5.50;99.90;;;;;;4979563;28;20212;-74
2024/01/15 12:47:38;;;;;;;6.22;3.17;;;5.50;99.90;;;;;;5019268;28;20231;-74